Time;durP1;ratioP1;P1;durP2;ratioP2;P2;SDS_P1;SDS_P2;PMS_P1;PMS_P2;Temp;Humidity;BMP_temperature;BMP_pressure;BME280_temperature;BME280_humidity;BME280_pressure;Samples;Min_cycle;Max_cycle;Signal;HPM_P1;HPM_P2
2023/05/06 00:01:43;;;;;;;0.90;0.90;;;;;;;10.46;91.18;97046.66;5043226;28;20049;-64
2023/05/06 00:04:10;;;;;;;0.80;0.80;;;;;;;10.49;91.53;97049.47;5044520;28;20546;-64
2023/05/06 00:06:37;;;;;;;0.80;0.80;;;;;;;10.13;90.57;96969.72;5044602;28;20053;-64
2023/05/06 00:09:04;;;;;;;0.85;0.85;;;;;;;10.02;91.36;96973.47;5043333;28;20060;-64
2023/05/06 00:11:31;;;;;;;0.80;0.80;;;;;;;10.53;90.89;97042.03;5042404;28;20238;-64
2023/05/06 00:13:57;;;;;;;0.80;0.80;;;;;;;10.54;91.13;97049.16;5044119;28;20139;-65
2023/05/06 00:16:24;;;;;;;0.80;0.80;;;;;;;10.26;90.76;97004.38;5042977;28;20060;-64
2023/05/06 00:18:50;;;;;;;0.80;0.80;;;;;;;10.49;90.24;97049.47;5044546;28;20096;-64
2023/05/06 00:21:17;;;;;;;0.80;0.80;;;;;;;10.50;90.51;97053.84;5042474;28;20053;-64
2023/05/06 00:23:44;;;;;;;0.70;0.70;;;;;;;10.59;90.16;97053.59;5044056;28;20056;-65
2023/05/06 00:26:10;;;;;;;0.80;0.80;;;;;;;9.82;89.74;96914.59;5043927;28;20053;-64
2023/05/06 00:28:37;;;;;;;0.88;0.88;;;;;;;10.65;89.83;97041.03;5042538;28;20140;-64
2023/05/06 00:31:04;;;;;;;0.80;0.80;;;;;;;10.56;89.24;97016.34;5043979;28;20056;-64
2023/05/06 00:33:30;;;;;;;0.80;0.80;;;;;;;10.69;89.33;97041.88;5044153;28;20083;-65
2023/05/06 00:35:57;;;;;;;0.82;0.82;;;;;;;10.40;89.72;96990.75;5043699;28;20128;-64
2023/05/06 00:38:24;;;;;;;0.90;0.90;;;;;;;10.80;88.19;97053.94;5042753;28;20114;-64
2023/05/06 00:40:50;;;;;;;0.90;0.90;;;;;;;10.70;89.02;97024.88;5043625;28;20132;-64
2023/05/06 00:43:17;;;;;;;0.80;0.80;;;;;;;10.65;89.56;97032.72;5031997;28;20061;-64
2023/05/06 00:45:44;;;;;;;0.80;0.80;;;;;;;10.61;89.72;97040.97;5021710;28;20508;-64
2023/05/06 00:48:11;;;;;;;0.80;0.80;;;;;;;10.66;89.26;97043.44;5024022;28;20124;-64
2023/05/06 00:50:39;;;;;;;0.90;0.90;;;;;;;10.44;89.10;97008.25;5023955;28;20389;-64
2023/05/06 00:53:08;;;;;;;0.80;0.80;;;;;;;10.61;89.90;97043.75;5024042;28;20064;-64
2023/05/06 00:55:34;;;;;;;0.90;0.90;;;;;;;10.65;89.76;97025.19;5024158;28;20057;-65
2023/05/06 00:58:02;;;;;;;0.80;0.80;;;;;;;10.19;89.30;96973.81;5023875;28;20125;-64
2023/05/06 01:00:29;;;;;;;0.80;0.80;;;;;;;10.50;89.38;97023.38;5023915;28;20054;-64
2023/05/06 01:02:55;;;;;;;0.80;0.80;;;;;;;10.00;91.23;96976.59;5024298;28;20087;-64
2023/05/06 01:05:24;;;;;;;0.90;0.90;;;;;;;9.97;91.09;96982.06;5024001;28;20065;-64
2023/05/06 01:07:59;;;;;;;0.80;0.80;;;;;;;10.23;92.07;97021.72;5022418;28;20123;-63
2023/05/06 01:10:44;;;;;;;0.80;0.80;;;;;;;10.33;90.75;97028.59;5023981;28;20138;-64
2023/05/06 01:13:23;;;;;;;0.80;0.80;;;;;;;9.81;92.82;96968.34;5023946;28;20057;-64
2023/05/06 01:15:54;;;;;;;0.80;0.80;;;;;;;10.18;92.57;97015.69;5023959;28;20076;-63
2023/05/06 01:18:24;;;;;;;0.80;0.80;;;;;;;10.12;92.48;96990.28;5023768;28;20483;-64
2023/05/06 01:20:53;;;;;;;0.77;0.77;;;;;;;10.21;93.52;97009.41;5023549;28;20064;-63
2023/05/06 01:23:20;;;;;;;0.80;0.80;;;;;;;10.17;92.58;96976.13;5023478;28;20103;-65
2023/05/06 01:25:46;;;;;;;0.80;0.80;;;;;;;10.25;91.75;97016.63;5021949;28;20057;-63
2023/05/06 01:28:13;;;;;;;0.80;0.80;;;;;;;10.21;90.52;97010.19;5023763;28;20049;-65
2023/05/06 01:30:54;;;;;;;0.80;0.80;;;;;;;10.12;91.57;97008.84;5023530;28;20423;-64
2023/05/06 01:33:28;;;;;;;0.68;0.68;;;;;;;10.09;93.25;97004.84;5024953;28;20610;-64
2023/05/06 01:36:07;;;;;;;0.80;0.80;;;;;;;9.51;94.11;96942.47;5027449;28;20061;-64
2023/05/06 01:38:48;;;;;;;0.85;0.85;;;;;;;9.90;94.57;96963.38;5027584;28;20508;-64
2023/05/06 01:41:16;;;;;;;0.80;0.80;;;;;;;10.19;94.62;97011.75;5027305;28;20084;-64
2023/05/06 01:43:46;;;;;;;0.77;0.77;;;;;;;10.15;93.90;97006.16;5027198;28;20503;-64
2023/05/06 01:46:20;;;;;;;0.80;0.80;;;;;;;10.30;93.03;96999.69;5026794;28;20669;-64
2023/05/06 01:48:51;;;;;;;0.80;0.80;;;;;;;10.30;92.92;96996.94;5025741;28;20056;-63
2023/05/06 01:51:19;;;;;;;0.80;0.80;;;;;;;9.86;91.33;96943.16;5027215;28;20471;-64
2023/05/06 01:53:45;;;;;;;0.80;0.80;;;;;;;10.00;91.96;96975.78;5027453;28;20180;-64
2023/05/06 01:56:12;;;;;;;0.80;0.80;;;;;;;10.11;92.44;97010.84;5026891;28;20073;-65
2023/05/06 01:58:39;;;;;;;0.80;0.80;;;;;;;10.09;93.53;97007.63;5026684;28;20085;-65
2023/05/06 02:01:05;;;;;;;0.80;0.80;;;;;;;10.13;92.55;97008.47;5025729;28;20164;-65
2023/05/06 02:03:32;;;;;;;0.80;0.80;;;;;;;9.79;91.83;96940.25;5026394;28;20046;-64
2023/05/06 02:05:59;;;;;;;0.73;0.73;;;;;;;10.22;92.44;96995.22;5027079;28;20049;-64
2023/05/06 02:08:25;;;;;;;0.80;0.80;;;;;;;10.19;93.85;97001.50;5026815;28;20053;-64
2023/05/06 02:10:52;;;;;;;0.80;0.80;;;;;;;10.29;93.22;96997.31;5026785;28;20138;-64
2023/05/06 02:13:19;;;;;;;0.80;0.80;;;;;;;10.27;92.50;97014.28;5026502;28;20053;-65
2023/05/06 02:15:45;;;;;;;0.77;0.77;;;;;;;10.12;92.59;96967.31;5026629;28;20084;-63
2023/05/06 02:18:12;;;;;;;0.80;0.80;;;;;;;10.31;93.19;96990.22;5024930;28;20042;-65
2023/05/06 02:20:39;;;;;;;0.88;0.88;;;;;;;10.34;92.94;96989.47;5026585;28;20500;-64
2023/05/06 02:23:05;;;;;;;0.80;0.80;;;;;;;10.46;92.62;96994.81;5026552;28;20057;-65
2023/05/06 02:25:32;;;;;;;0.80;0.80;;;;;;;9.96;90.96;96986.78;5026562;28;20049;-64
2023/05/06 02:27:58;;;;;;;0.85;0.85;;;;;;;10.45;90.24;97004.28;5026604;28;20089;-65
2023/05/06 02:30:25;;;;;;;0.85;0.85;;;;;;;10.27;91.82;97008.75;5026421;28;20049;-64
2023/05/06 02:32:52;;;;;;;0.80;0.80;;;;;;;10.22;92.85;97000.75;5024863;28;20077;-64
2023/05/06 02:35:18;;;;;;;0.90;0.90;;;;;;;9.92;91.98;96932.56;5026469;28;20444;-64
2023/05/06 02:37:45;;;;;;;0.80;0.80;;;;;;;10.22;91.90;96999.94;5024675;28;20111;-64
2023/05/06 02:40:12;;;;;;;0.80;0.80;;;;;;;10.24;91.85;97015.00;5025269;28;20092;-64
2023/05/06 02:42:38;;;;;;;0.80;0.80;;;;;;;10.04;91.69;96993.25;5024358;28;20084;-65
2023/05/06 02:45:06;;;;;;;0.70;0.70;;;;;;;10.16;92.69;97007.72;5024498;28;20041;-64
2023/05/06 02:47:33;;;;;;;0.80;0.80;;;;;;;10.17;92.21;97003.81;5023026;28;20057;-64
2023/05/06 02:50:00;;;;;;;0.80;0.80;;;;;;;10.07;92.61;97042.34;5024994;28;20136;-64
2023/05/06 02:52:26;;;;;;;0.80;0.80;;;;;;;10.03;94.07;97003.53;5024657;28;20049;-64
2023/05/06 02:54:53;;;;;;;0.70;0.70;;;;;;;9.97;93.76;97010.53;5025566;28;20107;-64
2023/05/06 02:57:20;;;;;;;0.80;0.80;;;;;;;10.09;93.21;97021.47;5025559;28;20111;-65
2023/05/06 02:59:46;;;;;;;0.70;0.70;;;;;;;9.92;94.32;97019.13;5025886;28;20127;-63
2023/05/06 03:02:13;;;;;;;0.80;0.80;;;;;;;9.23;95.32;96908.75;5025543;28;20053;-65
2023/05/06 03:04:39;;;;;;;0.70;0.70;;;;;;;9.86;96.16;96998.47;5025751;28;20111;-64
2023/05/06 03:07:06;;;;;;;0.70;0.70;;;;;;;9.95;96.21;97012.88;5025725;28;20500;-64
2023/05/06 03:09:33;;;;;;;0.70;0.70;;;;;;;9.63;95.61;96950.59;5024437;28;20053;-64
2023/05/06 03:12:01;;;;;;;0.80;0.80;;;;;;;9.76;95.56;96965.88;5025877;28;20140;-64
2023/05/06 03:14:27;;;;;;;0.80;0.80;;;;;;;10.08;96.67;97017.09;5025194;28;20053;-64
2023/05/06 03:16:54;;;;;;;0.80;0.80;;;;;;;8.05;95.55;96720.09;5025838;28;20045;-64
2023/05/06 03:19:21;;;;;;;0.80;0.80;;;;;;;10.17;94.50;96987.22;5025265;28;20050;-64
2023/05/06 03:21:48;;;;;;;0.75;0.75;;;;;;;10.26;94.60;97012.66;5025609;28;20046;-63
2023/05/06 03:24:14;;;;;;;0.80;0.80;;;;;;;10.28;94.73;97002.03;5025535;28;20053;-64
2023/05/06 03:26:41;;;;;;;0.73;0.73;;;;;;;10.39;95.24;97007.75;5025564;28;20050;-64
2023/05/06 03:29:08;;;;;;;0.88;0.88;;;;;;;10.57;94.76;97023.47;5025247;28;20563;-64
2023/05/06 03:31:34;;;;;;;0.80;0.80;;;;;;;10.37;93.19;96966.59;5025637;28;20061;-64
2023/05/06 03:34:01;;;;;;;0.80;0.80;;;;;;;10.45;91.10;96948.91;5024939;28;20076;-65
2023/05/06 03:36:28;;;;;;;0.88;0.88;;;;;;;10.86;90.12;97029.50;5025492;28;20741;-64
2023/05/06 03:38:54;;;;;;;0.88;0.88;;;;;;;10.73;91.44;97030.88;5023501;28;20057;-65
2023/05/06 03:41:22;;;;;;;0.82;0.82;;;;;;;10.68;92.50;97030.00;5025407;28;20085;-65
2023/05/06 03:43:48;;;;;;;0.80;0.80;;;;;;;10.83;91.73;97030.25;5024673;28;20493;-64
2023/05/06 03:46:15;;;;;;;0.85;0.85;;;;;;;10.67;92.67;97017.31;5023787;28;20120;-64
2023/05/06 03:48:42;;;;;;;0.80;0.80;;;;;;;10.51;92.71;96982.66;5024735;28;20129;-64
2023/05/06 03:51:08;;;;;;;0.82;0.82;;;;;;;10.97;92.21;97047.09;5023124;28;20100;-65
2023/05/06 03:53:35;;;;;;;0.80;0.80;;;;;;;10.55;92.42;96976.00;5025097;28;20471;-64
2023/05/06 03:56:02;;;;;;;0.90;0.90;;;;;;;11.09;92.16;97039.34;5024244;28;20515;-64
2023/05/06 03:58:28;;;;;;;0.88;0.88;;;;;;;11.06;92.08;97033.75;5024371;28;20115;-64
2023/05/06 04:00:55;;;;;;;0.90;0.90;;;;;;;11.06;92.15;97047.63;5024755;28;20085;-64
2023/05/06 04:03:21;;;;;;;0.90;0.90;;;;;;;11.19;91.92;97040.69;5024717;28;20081;-64
2023/05/06 04:05:49;;;;;;;0.90;0.90;;;;;;;11.29;91.58;97048.34;5024718;28;20049;-63
2023/05/06 04:08:16;;;;;;;0.88;0.88;;;;;;;11.38;90.38;97051.66;5023308;28;20088;-64
2023/05/06 04:10:43;;;;;;;1.00;1.00;;;;;;;10.72;92.75;96980.19;5024800;28;20505;-64
2023/05/06 04:13:09;;;;;;;0.90;0.90;;;;;;;11.43;91.38;97041.03;5024635;28;20069;-66
2023/05/06 04:15:37;;;;;;;0.98;0.98;;;;;;;11.22;91.66;97049.06;5024698;28;20053;-64
2023/05/06 04:18:05;;;;;;;0.90;0.90;;;;;;;11.72;90.42;97061.63;5024578;28;20053;-66
2023/05/06 04:20:31;;;;;;;0.90;0.90;;;;;;;11.71;89.99;97043.41;5023943;28;20468;-65
2023/05/06 04:22:58;;;;;;;1.00;1.00;;;;;;;11.92;89.06;97054.75;5024256;28;20111;-64
2023/05/06 04:25:25;;;;;;;0.95;0.95;;;;;;;11.90;89.63;97057.91;5024218;28;20053;-65
2023/05/06 04:27:52;;;;;;;1.00;1.00;;;;;;;11.93;89.40;97061.91;5024361;28;20061;-64
2023/05/06 04:30:19;;;;;;;0.90;0.90;;;;;;;11.51;89.48;96980.88;5022446;28;20143;-65
2023/05/06 04:32:46;;;;;;;1.00;1.00;;;;;;;11.96;88.74;97011.19;5024297;28;20053;-63
2023/05/06 04:35:13;;;;;;;0.90;0.90;;;;;;;12.44;87.80;97065.63;5022432;28;20149;-65
2023/05/06 04:37:40;;;;;;;1.00;1.00;;;;;;;12.61;87.50;97064.22;5024000;28;20049;-65
2023/05/06 04:40:09;;;;;;;0.90;0.90;;;;;;;12.79;87.43;97060.41;5023611;28;20085;-64
2023/05/06 04:42:35;;;;;;;1.00;1.00;;;;;;;12.88;87.50;97063.66;5021726;28;20076;-62
2023/05/06 04:45:03;;;;;;;1.00;1.00;;;;;;;13.11;86.22;97055.94;5021993;28;20049;-65
2023/05/06 04:47:30;;;;;;;1.00;1.00;;;;;;;12.97;85.60;97004.94;5023632;28;20170;-65
2023/05/06 04:49:57;;;;;;;1.10;1.10;;;;;;;13.48;85.09;97047.44;5022778;28;20049;-64
2023/05/06 04:52:25;;;;;;;1.10;1.10;;;;;;;13.54;84.27;97057.81;5023864;28;20053;-64
2023/05/06 04:54:51;;;;;;;1.20;1.20;;;;;;;13.62;83.55;97053.84;5023845;28;20068;-65
2023/05/06 04:57:18;;;;;;;1.10;1.10;;;;;;;13.98;81.99;97052.06;5022364;28;20058;-65
2023/05/06 04:59:45;;;;;;;1.35;1.35;;;;;;;14.32;81.61;97058.16;5023632;28;20532;-65
2023/05/06 05:02:11;;;;;;;1.33;1.33;;;;;;;14.03;79.60;96984.03;5024083;28;20059;-63
2023/05/06 05:04:38;;;;;;;1.17;1.17;;;;;;;14.81;78.93;97052.69;5022436;28;20421;-64
2023/05/06 05:07:06;;;;;;;1.17;1.17;;;;;;;15.14;77.10;97043.91;5024659;28;20049;-64
2023/05/06 05:09:34;;;;;;;1.38;1.38;;;;;;;14.96;77.20;96990.91;5027805;28;20081;-62
2023/05/06 05:12:04;;;;;;;1.30;1.30;;;;;;;15.27;76.34;96986.47;5027800;28;20111;-64
2023/05/06 05:14:30;;;;;;;1.25;1.25;;;;;;;15.91;75.41;97048.53;5027330;28;20045;-64
2023/05/06 05:16:57;;;;;;;1.27;1.27;;;;;;;16.12;73.62;97054.03;5028034;28;20111;-64
2023/05/06 05:19:23;;;;;;;1.40;1.40;;;;;;;15.81;72.64;96988.72;5027625;28;20052;-63
2023/05/06 05:21:51;;;;;;;1.50;1.50;;;;;;;16.51;71.69;97055.47;5027491;28;20049;-64
2023/05/06 05:24:18;;;;;;;1.60;1.60;;;;;;;16.46;69.73;97007.53;5027869;28;20050;-64
2023/05/06 05:26:44;;;;;;;1.63;1.63;;;;;;;16.90;69.15;97046.00;5027604;28;20134;-64
2023/05/06 05:29:11;;;;;;;1.70;1.70;;;;;;;17.06;67.42;97047.06;5027342;28;20457;-65
2023/05/06 05:31:37;;;;;;;1.70;1.70;;;;;;;17.14;65.76;97031.81;5027621;28;20057;-65
2023/05/06 05:34:05;;;;;;;1.77;1.77;;;;;;;17.43;65.79;97049.13;5026066;28;20080;-64
2023/05/06 05:36:32;;;;;;;1.60;1.60;;;;;;;17.35;64.68;97025.22;5027467;28;20161;-64
2023/05/06 05:38:58;;;;;;;1.80;1.80;;;;;;;15.82;64.35;96744.50;5026090;28;20053;-63
2023/05/06 05:41:25;;;;;;;1.70;1.70;;;;;;;18.00;62.45;97048.13;5027377;28;20496;-65
2023/05/06 05:43:52;;;;;;;1.55;1.55;;;;;;;18.22;61.67;97059.88;5027054;28;20071;-64
2023/05/06 05:46:18;;;;;;;1.92;1.92;;;;;;;18.18;59.19;97025.47;5027219;28;20142;-65
2023/05/06 05:48:45;;;;;;;1.95;1.95;;;;;;;18.47;58.47;97046.38;5027127;28;20144;-63
2023/05/06 05:51:12;;;;;;;1.88;1.88;;;;;;;18.10;59.61;97054.81;5027069;28;20057;-64
2023/05/06 05:53:40;;;;;;;1.92;1.92;;;;;;;18.13;57.67;97066.00;5027143;28;20053;-65
2023/05/06 05:56:07;;;;;;;2.10;2.10;;;;;;;18.44;58.04;97050.00;5027028;28;20057;-64
2023/05/06 05:58:33;;;;;;;2.00;2.00;;;;;;;18.63;57.16;97054.97;5021839;28;20517;-63
2023/05/06 06:01:00;;;;;;;1.85;1.85;;;;;;;18.89;56.93;97068.19;5007042;28;20065;-64
2023/05/06 06:03:27;;;;;;;2.13;2.13;;;;;;;18.36;57.85;97051.28;5007266;28;20058;-63
2023/05/06 06:05:54;;;;;;;2.08;2.08;;;;;;;18.70;56.60;97057.66;5007009;28;20444;-65
2023/05/06 06:08:21;;;;;;;2.00;2.00;;;;;;;18.90;54.91;97075.41;5019388;28;20537;-67
2023/05/06 06:10:47;;;;;;;2.28;2.28;;;;;;;19.21;54.39;97043.22;5024434;28;20504;-59
2023/05/06 06:13:14;;;;;;;2.10;2.10;;;;;;;19.38;52.38;97025.28;5025493;28;20111;-68
2023/05/06 06:15:41;;;;;;;1.80;1.80;;;;;;;19.55;51.92;97012.91;5023976;28;20049;-76
2023/05/06 06:18:07;;;;;;;1.98;1.98;;;;;;;18.47;52.73;96827.56;5024576;28;20099;-62
2023/05/06 06:20:34;;;;;;;2.13;2.13;;;;;;;19.88;52.07;97055.28;5034931;28;20087;-76
2023/05/06 06:23:01;;;;;;;1.92;1.92;;;;;;;19.58;52.43;97019.72;5023637;28;20137;-68
2023/05/06 06:25:28;;;;;;;2.00;2.00;;;;;;;19.50;51.40;96931.94;5025830;28;20088;-68
2023/05/06 06:27:55;;;;;;;2.10;2.10;;;;;;;19.62;52.05;97019.66;5025188;28;20669;-64
2023/05/06 06:30:22;;;;;;;2.20;2.20;;;;;;;19.10;53.69;97034.16;5024862;28;20126;-64
2023/05/06 06:32:52;;;;;;;1.73;1.73;;;;;;;19.49;53.71;97090.50;5025203;28;20049;-62
2023/05/06 06:35:19;;;;;;;2.30;2.30;;;;;;;19.01;54.20;97003.03;5022401;28;20045;-65
2023/05/06 06:37:46;;;;;;;1.90;1.90;;;;;;;18.15;55.49;96855.28;5021671;28;20566;-60
2023/05/06 06:40:13;;;;;;;1.88;1.88;;;;;;;19.60;53.19;97067.06;5024546;28;20927;-61
2023/05/06 06:42:40;;;;;;;1.60;1.60;;;;;;;19.14;54.53;97029.28;5039662;28;20150;-61
2023/05/06 06:45:10;;;;;;;1.77;1.77;;;;;;;19.58;51.30;97058.25;5024797;28;20053;-58
2023/05/06 06:47:37;;;;;;;2.10;2.10;;;;;;;18.83;52.18;96968.84;5021853;28;20096;-62
2023/05/06 06:50:04;;;;;;;1.73;1.73;;;;;;;19.00;53.11;97051.19;5024017;28;20049;-65
2023/05/06 06:52:31;;;;;;;2.00;2.00;;;;;;;19.39;52.67;97051.38;5024835;28;20506;-57
2023/05/06 06:54:58;;;;;;;1.83;1.83;;;;;;;19.46;52.34;97057.66;5024526;28;20056;-58
2023/05/06 06:57:25;;;;;;;1.85;1.85;;;;;;;19.20;51.98;96982.66;5022524;28;20053;-59
2023/05/06 06:59:52;;;;;;;2.05;2.05;;;;;;;19.86;51.88;97057.72;5012638;28;20134;-65
2023/05/06 07:02:19;;;;;;;2.10;2.10;;;;;;;19.73;52.00;97054.75;5003114;28;20100;-57
2023/05/06 07:04:46;;;;;;;1.95;1.95;;;;;;;19.33;51.98;97030.59;5005141;28;20041;-69
2023/05/06 07:07:13;;;;;;;1.88;1.88;;;;;;;18.77;52.26;96976.16;5021095;28;20065;-57
2023/05/06 07:09:40;;;;;;;2.00;2.00;;;;;;;19.27;52.67;97066.78;5023722;28;20050;-59
2023/05/06 07:12:07;;;;;;;1.73;1.73;;;;;;;19.08;53.87;97064.69;5023828;28;20058;-67
2023/05/06 07:14:33;;;;;;;1.90;1.90;;;;;;;18.46;53.75;97005.50;5023318;28;20515;-56
2023/05/06 07:17:00;;;;;;;1.90;1.90;;;;;;;17.72;54.05;96944.00;5020092;28;20084;-70
2023/05/06 07:19:28;;;;;;;1.75;1.75;;;;;;;18.61;54.95;97082.63;5035712;28;20046;-60
2023/05/06 07:21:55;;;;;;;2.00;2.00;;;;;;;19.39;54.19;97060.56;5019551;28;20111;-60
2023/05/06 07:24:22;;;;;;;2.03;2.03;;;;;;;19.62;53.29;97070.25;5023583;28;20053;-58
2023/05/06 07:26:49;;;;;;;2.08;2.08;;;;;;;19.58;52.68;97064.69;5022480;28;20559;-61
2023/05/06 07:29:18;;;;;;;1.70;1.70;;;;;;;19.86;52.62;97063.34;5024592;28;20061;-62
2023/05/06 07:31:45;;;;;;;1.90;1.90;;;;;;;19.24;51.90;97067.63;5023563;28;20052;-64
2023/05/06 07:34:12;;;;;;;1.83;1.83;;;;;;;18.33;52.74;96990.44;5024422;28;20600;-58
2023/05/06 07:36:39;;;;;;;2.00;2.00;;;;;;;18.11;53.67;96888.97;5024147;28;20095;-60
2023/05/06 07:39:06;;;;;;;2.00;2.00;;;;;;;19.52;53.24;97083.25;5038928;28;20053;-62
2023/05/06 07:41:33;;;;;;;1.63;1.63;;;;;;;19.01;53.10;97059.19;5024625;28;20706;-71
2023/05/06 07:44:00;;;;;;;1.80;1.80;;;;;;;19.10;54.98;97083.91;5023966;28;20539;-66
2023/05/06 07:46:27;;;;;;;1.90;1.90;;;;;;;18.94;55.38;97000.34;5021850;28;20046;-61
2023/05/06 07:48:54;;;;;;;1.85;1.85;;;;;;;19.49;53.85;97078.47;5018187;28;20499;-66
2023/05/06 07:51:21;;;;;;;2.22;2.22;;;;;;;19.47;53.35;97070.47;5037237;28;20099;-63
2023/05/06 07:53:48;;;;;;;2.13;2.13;;;;;;;16.89;54.18;96695.47;5020565;28;20146;-64
2023/05/06 07:56:16;;;;;;;1.70;1.70;;;;;;;19.14;52.51;96984.34;5014509;28;20428;-61
2023/05/06 07:58:43;;;;;;;2.08;2.08;;;;;;;20.18;49.83;97091.69;5021764;28;20068;-64
2023/05/06 08:01:10;;;;;;;2.00;2.00;;;;;;;19.90;50.31;97075.34;5020998;28;20584;-71
2023/05/06 08:03:37;;;;;;;1.75;1.75;;;;;;;19.83;49.63;97031.28;5021015;28;20046;-62
2023/05/06 08:06:04;;;;;;;1.73;1.73;;;;;;;19.00;51.51;97023.88;5021615;28;20420;-59
2023/05/06 08:08:32;;;;;;;1.88;1.88;;;;;;;19.65;51.80;97075.78;5024135;28;20053;-66
2023/05/06 08:10:59;;;;;;;2.00;2.00;;;;;;;19.29;50.93;97030.66;5020452;28;20054;-69
2023/05/06 08:13:27;;;;;;;2.03;2.03;;;;;;;19.82;50.81;97051.38;5022821;28;20467;-64
2023/05/06 08:15:54;;;;;;;1.92;1.92;;;;;;;20.55;50.39;97082.88;5021908;28;20050;-63
2023/05/06 08:18:21;;;;;;;1.80;1.80;;;;;;;20.15;48.52;97064.41;5019850;28;20057;-61
2023/05/06 08:20:50;;;;;;;1.90;1.90;;;;;;;20.23;49.12;97082.75;5018396;28;20045;-59
2023/05/06 08:23:16;;;;;;;1.92;1.92;;;;;;;20.48;48.54;97088.66;5017915;28;20519;-61
2023/05/06 08:25:43;;;;;;;1.90;1.90;;;;;;;20.69;50.02;97076.94;5023020;28;20076;-62
2023/05/06 08:28:10;;;;;;;2.08;2.08;;;;;;;20.25;48.03;97035.28;5021196;28;20824;-60
2023/05/06 08:30:37;;;;;;;2.30;2.30;;;;;;;19.99;48.05;97016.50;5025465;28;20139;-64
2023/05/06 08:33:04;;;;;;;2.15;2.15;;;;;;;20.81;49.04;97084.69;5018924;28;20155;-67
2023/05/06 08:35:31;;;;;;;2.00;2.00;;;;;;;20.12;49.05;97004.16;5030951;28;20057;-61
2023/05/06 08:37:57;;;;;;;2.17;2.17;;;;;;;19.64;47.79;96904.75;5014896;28;20164;-60
2023/05/06 08:40:26;;;;;;;1.92;1.92;;;;;;;20.70;48.93;97053.19;5016937;28;20061;-71
2023/05/06 08:42:58;;;;;;;2.17;2.17;;;;;;;21.73;47.42;97098.19;5014151;28;20534;-72
2023/05/06 08:45:25;;;;;;;2.42;2.38;;;;;;;21.32;46.17;97075.47;5004536;28;20049;-65
2023/05/06 08:47:55;;;;;;;2.20;2.20;;;;;;;20.80;47.13;97004.28;5003938;28;20057;-65
2023/05/06 08:50:23;;;;;;;2.08;2.08;;;;;;;20.74;48.91;97113.00;5019394;28;20469;-73
2023/05/06 08:52:50;;;;;;;2.10;2.10;;;;;;;21.15;47.73;97109.72;5015640;28;20053;-62
2023/05/06 08:55:18;;;;;;;2.00;2.00;;;;;;;21.13;46.77;97056.63;5020815;28;20488;-63
2023/05/06 08:57:46;;;;;;;2.03;2.03;;;;;;;20.02;47.49;96993.13;5019047;28;20674;-66
2023/05/06 09:00:14;;;;;;;2.15;2.15;;;;;;;20.43;48.60;97018.78;5020024;28;20180;-65
2023/05/06 09:02:41;;;;;;;2.10;2.10;;;;;;;21.68;47.32;97107.19;5026284;28;20041;-62
2023/05/06 09:05:10;;;;;;;2.28;2.28;;;;;;;22.05;45.41;97100.97;5017120;28;20160;-60
2023/05/06 09:07:37;;;;;;;2.40;2.35;;;;;;;21.19;46.40;96997.72;5019730;28;20045;-70
2023/05/06 09:10:11;;;;;;;2.45;2.38;;;;;;;22.05;45.40;97100.97;5013308;28;20463;-69
2023/05/06 09:12:38;;;;;;;2.72;2.63;;;;;;;21.89;45.07;97047.41;5020899;28;20049;-67
2023/05/06 09:15:06;;;;;;;2.53;2.42;;;;;;;21.93;45.97;97089.63;5022533;28;20714;-63
2023/05/06 09:17:33;;;;;;;2.05;2.05;;;;;;;21.89;47.06;97098.16;5021608;28;20064;-70
2023/05/06 09:19:59;;;;;;;2.17;2.17;;;;;;;20.70;46.68;97079.31;5021474;28;20049;-69
2023/05/06 09:22:28;;;;;;;2.00;2.00;;;;;;;20.32;46.75;97052.81;5022518;28;20041;-68
2023/05/06 09:24:56;;;;;;;2.05;2.05;;;;;;;20.69;47.01;97027.03;5029377;28;20053;-72
2023/05/06 09:27:26;;;;;;;2.05;2.05;;;;;;;21.40;45.78;97088.16;5021807;28;20055;-70
2023/05/06 09:30:06;;;;;;;2.10;2.10;;;;;;;20.95;46.56;97095.63;5022848;28;20083;-68
2023/05/06 09:32:35;;;;;;;1.95;1.95;;;;;;;21.40;47.73;97065.63;5021964;28;20058;-70
2023/05/06 09:35:07;;;;;;;2.28;2.28;;;;;;;21.23;47.33;97085.78;5022586;28;20102;-69
2023/05/06 09:37:34;;;;;;;2.10;2.10;;;;;;;20.09;44.97;96815.81;5023267;28;20053;-68
2023/05/06 09:40:01;;;;;;;2.30;2.30;;;;;;;22.25;45.34;97083.91;5021821;28;20064;-68
2023/05/06 09:42:29;;;;;;;2.20;2.20;;;;;;;22.18;45.46;97086.91;5021287;28;20050;-69
2023/05/06 09:44:59;;;;;;;2.03;2.03;;;;;;;21.42;44.94;96956.03;5021929;28;20049;-69
2023/05/06 09:47:32;;;;;;;2.30;2.30;;;;;;;21.88;45.98;97074.03;5020910;28;20045;-72
2023/05/06 09:50:03;;;;;;;2.50;2.40;;;;;;;22.19;45.83;97078.00;5022261;28;20049;-73
2023/05/06 09:52:30;;;;;;;2.70;2.60;;;;;;;22.36;44.89;97065.44;5023470;28;20061;-72
2023/05/06 09:54:58;;;;;;;2.17;2.17;;;;;;;22.94;43.41;97077.41;5025406;28;20057;-73
2023/05/06 09:57:25;;;;;;;2.75;2.65;;;;;;;22.95;42.83;97072.56;5026581;28;20050;-73
2023/05/06 09:59:54;;;;;;;3.03;2.92;;;;;;;22.58;43.17;97014.00;5025287;28;20049;-73
2023/05/06 10:02:22;;;;;;;2.30;2.30;;;;;;;21.94;43.69;97075.06;5025295;28;20053;-73
2023/05/06 10:04:53;;;;;;;2.10;2.10;;;;;;;21.85;45.68;97069.28;5025666;28;20088;-72
2023/05/06 10:07:24;;;;;;;2.28;2.28;;;;;;;21.65;45.13;97037.56;5025245;28;20053;-71
2023/05/06 10:10:00;;;;;;;2.30;2.30;;;;;;;21.30;46.57;97044.13;5026291;28;20061;-69
2023/05/06 10:12:28;;;;;;;2.13;2.13;;;;;;;22.11;45.26;97014.53;5026611;28;20118;-72
2023/05/06 10:14:55;;;;;;;2.50;2.40;;;;;;;22.11;45.54;97030.69;5026352;28;20753;-71
2023/05/06 10:17:26;;;;;;;2.30;2.30;;;;;;;22.26;44.10;97027.00;5026521;28;20516;-72
2023/05/06 10:19:57;;;;;;;2.40;2.30;;;;;;;22.92;43.84;97067.81;5026616;28;20059;-71
2023/05/06 10:22:32;;;;;;;2.28;2.28;;;;;;;23.11;44.20;97066.81;5025388;28;20101;-72
2023/05/06 10:25:03;;;;;;;2.05;2.05;;;;;;;22.32;43.72;97070.38;5025127;28;20500;-72
2023/05/06 10:27:38;;;;;;;2.30;2.30;;;;;;;21.84;44.44;97072.53;5026915;28;20065;-73
2023/05/06 10:30:08;;;;;;;2.58;2.47;;;;;;;21.41;44.50;97067.19;5025398;28;20056;-70
2023/05/06 10:32:40;;;;;;;2.10;2.10;;;;;;;21.44;46.17;97068.31;5026259;28;20555;-71
2023/05/06 10:35:31;;;;;;;2.20;2.20;;;;;;;21.74;45.23;97071.56;5026067;28;20099;-70
2023/05/06 10:37:58;;;;;;;2.00;2.00;;;;;;;21.72;45.97;97064.78;5026125;28;20129;-72
2023/05/06 10:40:28;;;;;;;2.47;2.38;;;;;;;22.02;44.50;97068.00;5024831;28;20582;-71
2023/05/06 10:43:23;;;;;;;2.08;2.08;;;;;;;21.48;44.61;97067.00;5024924;28;20594;-71
2023/05/06 10:46:05;;;;;;;2.20;2.20;;;;;;;22.06;44.63;97067.91;5024809;28;20057;-72
2023/05/06 10:48:32;;;;;;;2.20;2.20;;;;;;;21.51;45.05;97085.88;5023690;28;20085;-70
2023/05/06 10:51:14;;;;;;;2.17;2.17;;;;;;;21.21;45.90;97082.59;5024579;28;20057;-72
2023/05/06 10:53:54;;;;;;;2.10;2.10;;;;;;;21.38;45.58;97084.19;5024822;28;20057;-74
2023/05/06 10:56:21;;;;;;;2.20;2.20;;;;;;;21.58;45.62;97099.78;5025547;28;20049;-69
2023/05/06 10:58:47;;;;;;;2.13;2.13;;;;;;;21.63;45.46;97076.69;5025743;28;20658;-72
2023/05/06 11:01:15;;;;;;;2.20;2.20;;;;;;;21.91;45.20;97078.78;5006294;28;20690;-72
2023/05/06 11:03:44;;;;;;;2.10;2.10;;;;;;;22.19;44.00;97103.41;5005960;28;20129;-73
2023/05/06 11:06:11;;;;;;;2.22;2.22;;;;;;;21.46;44.70;97097.66;5005775;28;20060;-72
2023/05/06 11:08:42;;;;;;;2.00;2.00;;;;;;;20.50;46.17;97091.84;5005642;28;21373;-73
2023/05/06 11:11:46;;;;;;;2.10;2.10;;;;;;;20.72;46.39;97101.41;5020207;28;20054;-72
2023/05/06 11:14:15;;;;;;;2.20;2.20;;;;;;;20.83;46.21;97110.41;5006038;28;20050;-71
2023/05/06 11:16:47;;;;;;;2.10;2.10;;;;;;;20.52;46.04;97066.84;5020936;28;20062;-71
2023/05/06 11:19:22;;;;;;;2.10;2.10;;;;;;;20.11;47.16;97052.41;5005808;28;20116;-68
2023/05/06 11:21:52;;;;;;;2.20;2.20;;;;;;;20.41;47.33;97100.03;5005588;28;20496;-69
2023/05/06 11:24:40;;;;;;;1.75;1.75;;;;;;;20.47;48.13;97098.31;5004145;28;20562;-70
2023/05/06 11:27:09;;;;;;;2.10;2.10;;;;;;;21.47;46.75;97092.81;5019895;28;20064;-72
2023/05/06 11:29:36;;;;;;;2.10;2.10;;;;;;;21.92;46.31;97100.13;5005139;28;20113;-70
2023/05/06 11:32:20;;;;;;;1.73;1.73;;;;;;;21.40;46.48;97076.88;5005375;28;20221;-69
2023/05/06 11:34:47;;;;;;;2.08;2.08;;;;;;;21.25;46.33;97086.09;5005382;28;20052;-73
2023/05/06 11:37:23;;;;;;;2.20;2.20;;;;;;;20.91;46.27;97002.00;5005273;28;20050;-73
2023/05/06 11:39:50;;;;;;;2.35;2.30;;;;;;;21.70;46.13;97079.34;5005177;28;20394;-72